Time;durP1;ratioP1;P1;durP2;ratioP2;P2;SDS_P1;SDS_P2;PMS_P1;PMS_P2;Temp;Humidity;BMP_temperature;BMP_pressure;BME280_temperature;BME280_humidity;BME280_pressure;Samples;Min_cycle;Max_cycle;Signal;HPM_P1;HPM_P2
2023/09/24 00:02:11;;;;;;;6.60;3.60;;;;;;;11.69;100.00;101550.72;6026326;28;20393;-64
2023/09/24 00:05:07;;;;;;;9.18;3.97;;;;;;;11.67;100.00;101557.97;6026462;28;20064;-64
2023/09/24 00:08:03;;;;;;;8.07;4.22;;;;;;;11.62;100.00;101546.91;6026619;28;20046;-65
2023/09/24 00:10:58;;;;;;;7.93;4.30;;;;;;;11.68;100.00;101572.94;6026650;28;20038;-64
2023/09/24 00:13:54;;;;;;;7.03;3.50;;;;;;;11.71;100.00;101578.00;6025610;28;20022;-64
2023/09/24 00:16:49;;;;;;;7.38;4.10;;;;;;;11.72;100.00;101579.69;6025595;28;20027;-64
2023/09/24 00:19:45;;;;;;;6.83;3.93;;;;;;;11.66;100.00;101569.56;6026393;28;20509;-65
2023/09/24 00:22:41;;;;;;;6.82;3.38;;;;;;;11.69;100.00;101587.91;6021906;28;20110;-64
2023/09/24 00:25:37;;;;;;;10.27;3.67;;;;;;;11.62;100.00;101568.16;6026251;28;20041;-64
2023/09/24 00:28:32;;;;;;;8.00;3.90;;;;;;;11.83;100.00;101578.75;6026719;28;20034;-64
2023/09/24 00:31:27;;;;;;;8.37;4.07;;;;;;;11.90;100.00;101587.91;6020353;28;20493;-64
2023/09/24 00:34:23;;;;;;;5.77;3.27;;;;;;;12.04;100.00;101587.53;6026129;28;20265;-63
2023/09/24 00:37:18;;;;;;;6.90;3.50;;;;;;;12.10;100.00;101594.97;6025641;28;20277;-65
2023/09/24 00:40:13;;;;;;;6.73;4.00;;;;;;;12.21;100.00;101592.22;6026064;28;20393;-65
2023/09/24 00:43:27;;;;;;;10.10;3.77;;;;;;;12.22;100.00;101587.75;6021506;28;20046;-65
2023/09/24 00:46:23;;;;;;;6.82;3.33;;;;;;;12.20;100.00;101590.53;6029650;28;20076;-64
2023/09/24 00:49:18;;;;;;;10.73;4.20;;;;;;;12.10;100.00;101583.50;6023571;28;20026;-65
2023/09/24 00:52:14;;;;;;;5.97;3.28;;;;;;;12.09;100.00;101606.59;6026093;28;20289;-65
2023/09/24 00:55:10;;;;;;;7.93;3.50;;;;;;;12.00;100.00;101604.72;6028191;28;20050;-65
2023/09/24 00:58:06;;;;;;;5.55;3.38;;;;;;;11.90;100.00;101595.88;6023515;28;20458;-65
2023/09/24 01:01:03;;;;;;;10.13;3.90;;;;;;;12.01;100.00;101597.59;6024016;28;20080;-65
2023/09/24 01:03:58;;;;;;;7.53;3.80;;;;;;;12.16;100.00;101612.19;6022788;28;20397;-65
2023/09/24 01:06:54;;;;;;;8.40;3.33;;;;;;;12.17;100.00;101603.25;6025109;28;20030;-64
2023/09/24 01:09:49;;;;;;;8.25;3.45;;;;;;;12.22;100.00;101601.03;6024237;28;20038;-64
2023/09/24 01:12:55;;;;;;;8.77;3.90;;;;;;;12.35;100.00;101620.25;6024428;28;20088;-65
2023/09/24 01:15:51;;;;;;;9.80;3.17;;;;;;;12.32;100.00;101616.06;6024199;28;20301;-66
2023/09/24 01:18:47;;;;;;;6.18;3.28;;;;;;;12.39;100.00;101633.13;6025713;28;20109;-64
2023/09/24 01:21:44;;;;;;;5.50;3.43;;;;;;;12.39;100.00;101619.03;6025543;28;20038;-65
2023/09/24 01:24:39;;;;;;;6.18;3.25;;;;;;;12.41;100.00;101623.22;6017662;28;20038;-65
2023/09/24 01:27:35;;;;;;;4.80;3.15;;;;;;;12.40;100.00;101615.38;6023009;28;20034;-64
2023/09/24 01:30:31;;;;;;;9.25;3.40;;;;;;;12.43;100.00;101620.41;6025329;28;20038;-65
2023/09/24 01:33:26;;;;;;;6.63;3.03;;;;;;;12.42;100.00;101629.38;6025338;28;20497;-65
2023/09/24 01:36:22;;;;;;;7.55;3.72;;;;;;;12.42;100.00;101642.66;6024726;28;20053;-65
2023/09/24 01:39:18;;;;;;;7.57;3.47;;;;;;;12.37;100.00;101645.75;6024936;28;20034;-64
2023/09/24 01:42:13;;;;;;;9.77;2.90;;;;;;;12.23;100.00;101645.28;6025439;28;20285;-64
2023/09/24 01:45:10;;;;;;;7.87;3.10;;;;;;;12.22;100.00;101640.94;6024955;28;20591;-65
2023/09/24 01:48:09;;;;;;;6.30;2.97;;;;;;;12.18;100.00;101635.03;6024738;28;20031;-65
2023/09/24 01:51:06;;;;;;;6.43;3.00;;;;;;;12.33;100.00;101654.13;6025285;28;20026;-64
2023/09/24 01:54:02;;;;;;;7.82;3.45;;;;;;;12.29;100.00;101642.06;6024914;28;20441;-65
2023/09/24 01:56:57;;;;;;;9.85;3.40;;;;;;;12.33;100.00;101649.66;6027902;28;20026;-65
2023/09/24 01:59:53;;;;;;;5.43;3.10;;;;;;;12.30;100.00;101657.06;6025050;28;20041;-64
2023/09/24 02:02:48;;;;;;;7.20;3.35;;;;;;;12.18;100.00;101636.84;6025274;28;20169;-64
2023/09/24 02:05:45;;;;;;;5.88;3.35;;;;;;;12.23;100.00;101663.91;6024283;28;20031;-65
2023/09/24 02:08:40;;;;;;;6.60;4.18;;;;;;;12.22;100.00;101668.38;6027336;28;20038;-64
2023/09/24 02:11:36;;;;;;;5.37;3.30;;;;;;;12.23;100.00;101670.03;6028552;28;20073;-64
2023/09/24 02:14:31;;;;;;;12.10;4.00;;;;;;;12.28;100.00;101674.97;6029330;28;20046;-64
2023/09/24 02:17:26;;;;;;;8.13;3.90;;;;;;;12.25;100.00;101677.91;6021038;28;20053;-64
2023/09/24 02:23:26;;;;;;;6.03;3.72;;;;;;;12.27;100.00;101665.28;6029445;28;20041;-64
2023/09/24 02:26:22;;;;;;;9.45;3.20;;;;;;;12.22;100.00;101670.19;6027966;28;20038;-64
2023/09/24 02:29:18;;;;;;;5.93;3.30;;;;;;;12.32;100.00;101679.03;6022463;28;20039;-64
2023/09/24 02:32:14;;;;;;;10.65;3.65;;;;;;;12.33;100.00;101678.06;6029103;28;20092;-64
2023/09/24 02:35:13;;;;;;;8.80;3.73;;;;;;;12.29;100.00;101673.97;6027848;28;20481;-65
2023/09/24 02:38:10;;;;;;;5.15;3.20;;;;;;;12.36;100.00;101680.47;6028654;28;20405;-64
2023/09/24 02:41:05;;;;;;;5.30;2.95;;;;;;;12.36;100.00;101683.13;6023617;28;20042;-64
2023/09/24 02:44:02;;;;;;;5.40;3.20;;;;;;;12.37;100.00;101682.13;6028858;28;20030;-64
2023/09/24 02:46:57;;;;;;;6.35;3.13;;;;;;;12.39;100.00;101696.16;6027660;28;20034;-64
2023/09/24 02:49:52;;;;;;;6.73;3.33;;;;;;;12.36;100.00;101680.47;6028590;28;20038;-64
2023/09/24 02:52:49;;;;;;;6.17;3.70;;;;;;;12.49;100.00;101697.03;6028804;28;20042;-64
2023/09/24 02:55:45;;;;;;;6.90;3.55;;;;;;;12.44;100.00;101685.97;6031108;28;20029;-64
2023/09/24 02:58:41;;;;;;;6.57;3.38;;;;;;;12.47;100.00;101694.50;6028666;28;20073;-64
2023/09/24 03:01:36;;;;;;;8.30;3.97;;;;;;;12.54;100.00;101706.31;6028272;28;20066;-64
2023/09/24 03:04:31;;;;;;;6.83;3.53;;;;;;;12.50;100.00;101707.53;6025784;28;20026;-64
2023/09/24 03:07:28;;;;;;;7.67;3.60;;;;;;;12.45;100.00;101704.44;6027841;28;20030;-64
2023/09/24 03:10:23;;;;;;;7.25;4.07;;;;;;;12.45;100.00;101711.56;6027949;28;20034;-64
2023/09/24 03:13:19;;;;;;;5.85;3.80;;;;;;;12.38;100.00;101699.78;6028029;28;20038;-64
2023/09/24 03:16:14;;;;;;;5.95;3.90;;;;;;;12.41;100.00;101712.81;6026904;28;20496;-64
2023/09/24 03:19:09;;;;;;;6.07;4.00;;;;;;;12.37;100.00;101724.69;6027294;28;20118;-64
2023/09/24 03:22:05;;;;;;;9.53;4.43;;;;;;;12.30;100.00;101707.59;6027500;28;20021;-64
2023/09/24 03:25:00;;;;;;;8.07;3.95;;;;;;;12.15;100.00;101714.25;6027420;28;20030;-64
2023/09/24 03:27:58;;;;;;;9.63;4.65;;;;;;;12.10;100.00;101735.03;6027141;28;20512;-64
2023/09/24 03:30:53;;;;;;;11.00;5.10;;;;;;;11.94;100.00;101717.75;6027621;28;20019;-64
2023/09/24 03:33:49;;;;;;;8.40;4.72;;;;;;;11.96;100.00;101732.72;6027973;28;20053;-64
2023/09/24 03:36:45;;;;;;;9.30;5.20;;;;;;;11.85;100.00;101734.47;6027162;28;20448;-64
2023/09/24 03:39:40;;;;;;;9.98;5.20;;;;;;;11.84;100.00;101739.91;6027319;28;20057;-64
2023/09/24 03:42:38;;;;;;;9.30;5.10;;;;;;;11.85;100.00;101749.56;6027491;28;20037;-64
2023/09/24 03:45:33;;;;;;;8.30;4.57;;;;;;;11.90;100.00;101758.84;6018051;28;20358;-65
2023/09/24 03:48:28;;;;;;;7.78;4.80;;;;;;;11.80;100.00;101749.94;6027060;28;20030;-65
2023/09/24 03:51:24;;;;;;;8.40;5.13;;;;;;;11.86;100.00;101768.06;6027362;28;20022;-64
2023/09/24 03:54:20;;;;;;;9.35;5.20;;;;;;;11.88;100.00;101775.88;6026948;28;20038;-64
2023/09/24 03:57:15;;;;;;;9.17;5.63;;;;;;;11.80;100.00;101768.56;6030592;28;20042;-64
2023/09/24 04:00:18;;;;;;;11.77;5.70;;;;;;;11.81;100.00;101767.59;6026852;28;20466;-64
2023/09/24 04:03:14;;;;;;;11.73;5.50;;;;;;;11.94;100.00;101781.53;6026910;28;20042;-64
2023/09/24 04:06:13;;;;;;;8.65;5.40;;;;;;;11.94;100.00;101781.53;6026196;28;20116;-64
2023/09/24 04:09:09;;;;;;;11.05;5.03;;;;;;;12.04;100.00;101792.22;6026875;28;20390;-64
2023/09/24 04:12:04;;;;;;;11.82;5.45;;;;;;;11.98;100.00;101786.59;6027014;28;20049;-64
2023/09/24 04:15:01;;;;;;;8.90;5.18;;;;;;;12.02;100.00;101782.69;6025289;28;20030;-64
2023/09/24 04:17:57;;;;;;;7.78;5.03;;;;;;;12.11;100.00;101803.22;6019816;28;20030;-64
2023/09/24 04:20:52;;;;;;;7.88;4.47;;;;;;;12.13;100.00;101806.56;6020473;28;20026;-64
2023/09/24 04:23:48;;;;;;;8.35;4.60;;;;;;;12.20;100.00;101803.25;6026742;28;20038;-64
2023/09/24 04:26:45;;;;;;;9.63;4.93;;;;;;;12.26;100.00;101805.41;6025678;28;20034;-64
2023/09/24 04:29:41;;;;;;;8.88;5.30;;;;;;;12.23;100.00;101802.19;6025735;28;20768;-64
2023/09/24 04:32:36;;;;;;;9.10;5.10;;;;;;;12.20;100.00;101815.75;6021761;28;20036;-64
2023/09/24 04:35:33;;;;;;;9.75;5.55;;;;;;;12.12;100.00;101810.22;6025455;28;20413;-64
2023/09/24 04:38:28;;;;;;;9.75;4.63;;;;;;;12.16;100.00;101814.28;6024390;28;20046;-64
2023/09/24 04:41:24;;;;;;;9.77;5.00;;;;;;;12.22;100.00;101803.16;6021946;28;20030;-64
2023/09/24 04:44:19;;;;;;;10.75;5.30;;;;;;;12.26;100.00;101825.84;6021348;28;20038;-65
2023/09/24 04:47:15;;;;;;;7.87;4.70;;;;;;;12.19;100.00;101827.34;6014476;28;20042;-64
2023/09/24 04:50:13;;;;;;;9.83;4.97;;;;;;;12.13;100.00;101825.19;6022733;28;20038;-64
2023/09/24 04:53:08;;;;;;;13.27;5.55;;;;;;;12.04;100.00;101828.63;6026394;28;20791;-64
2023/09/24 04:56:06;;;;;;;10.23;5.47;;;;;;;11.89;100.00;101844.88;6029954;28;20042;-64
2023/09/24 04:59:02;;;;;;;9.45;6.53;;;;;;;11.83;100.00;101847.19;6024245;28;20500;-64
2023/09/24 05:01:58;;;;;;;11.85;5.60;;;;;;;11.74;100.00;101853.28;6025600;28;20034;-64
2023/09/24 05:04:54;;;;;;;11.50;5.07;;;;;;;11.69;100.00;101856.28;6024049;28;20433;-64
2023/09/24 05:07:50;;;;;;;12.07;5.82;;;;;;;11.58;100.00;101850.97;6021042;28;20116;-64
2023/09/24 05:10:46;;;;;;;11.00;5.93;;;;;;;11.50;100.00;101850.75;6022200;28;20157;-64
2023/09/24 05:13:41;;;;;;;9.83;5.33;;;;;;;11.48;100.00;101863.31;6023710;28;20043;-64
2023/09/24 05:16:36;;;;;;;14.70;5.47;;;;;;;11.52;100.00;101877.22;6025072;28;20469;-64
2023/09/24 05:19:33;;;;;;;13.93;6.60;;;;;;;11.52;100.00;101886.03;6025473;28;20026;-64
2023/09/24 05:22:28;;;;;;;13.65;6.28;;;;;;;11.57;100.00;101880.31;6025618;28;20022;-64
2023/09/24 05:25:23;;;;;;;11.07;6.00;;;;;;;11.51;100.00;101888.78;6019118;28;20092;-64
2023/09/24 05:28:19;;;;;;;9.98;5.65;;;;;;;11.47;100.00;101890.84;6017786;28;20334;-64
2023/09/24 05:31:16;;;;;;;14.03;6.13;;;;;;;11.54;100.00;101897.38;6018285;28;20047;-64
2023/09/24 05:34:11;;;;;;;10.85;5.47;;;;;;;11.66;100.00;101888.38;6016221;28;20055;-64
2023/09/24 05:37:06;;;;;;;9.77;5.70;;;;;;;11.68;100.00;101904.22;6024929;28;20033;-64
2023/09/24 05:40:03;;;;;;;10.70;5.23;;;;;;;11.70;100.00;101889.88;6024817;28;20046;-64
2023/09/24 05:42:58;;;;;;;12.23;6.57;;;;;;;11.70;100.00;101905.81;6022804;28;20077;-64
2023/09/24 05:45:53;;;;;;;11.20;5.37;;;;;;;11.61;100.00;101887.06;6027897;28;20038;-64
2023/09/24 05:48:49;;;;;;;9.30;5.60;;;;;;;11.87;100.00;101917.75;6028828;28;20280;-64
2023/09/24 05:51:44;;;;;;;12.93;6.20;;;;;;;11.97;100.00;101901.88;6030093;28;20041;-64
2023/09/24 05:54:40;;;;;;;12.83;7.20;;;;;;;12.29;100.00;101910.69;6028288;28;20058;-64
2023/09/24 05:57:35;;;;;;;12.80;6.15;;;;;;;12.71;100.00;101925.72;6018625;28;20482;-64
2023/09/24 06:00:31;;;;;;;10.43;6.40;;;;;;;13.09;100.00;101931.31;6023464;28;20495;-64
2023/09/24 06:03:27;;;;;;;11.05;6.80;;;;;;;13.41;100.00;101940.97;6029175;28;20038;-64
2023/09/24 06:06:22;;;;;;;13.40;6.40;;;;;;;13.43;100.00;101947.00;6028950;28;20041;-64
2023/09/24 06:09:17;;;;;;;12.27;6.37;;;;;;;13.28;100.00;101935.88;6027517;28;20077;-64
2023/09/24 06:12:13;;;;;;;8.88;5.30;;;;;;;13.90;100.00;101948.16;6022294;28;20117;-64
2023/09/24 06:15:10;;;;;;;9.70;6.03;;;;;;;13.81;100.00;101943.63;6027700;28;20038;-64
2023/09/24 06:18:06;;;;;;;10.30;5.97;;;;;;;14.21;100.00;101953.25;6022898;28;20042;-64
2023/09/24 06:21:04;;;;;;;14.17;5.67;;;;;;;14.11;100.00;101951.56;6029715;28;20039;-64
2023/09/24 06:23:59;;;;;;;10.65;6.20;;;;;;;14.10;100.00;101950.72;6028763;28;20066;-65
2023/09/24 06:26:54;;;;;;;12.47;6.63;;;;;;;14.22;100.00;101952.28;6013943;28;20081;-64
2023/09/24 06:29:49;;;;;;;10.70;5.83;;;;;;;14.03;100.00;101965.59;6021454;28;20034;-65
2023/09/24 06:32:45;;;;;;;9.93;6.27;;;;;;;13.97;100.00;101970.66;6028287;28;20046;-65
2023/09/24 06:35:40;;;;;;;9.77;5.10;;;;;;;14.11;100.00;101984.41;6021941;28;20034;-65
2023/09/24 06:38:36;;;;;;;11.80;5.60;;;;;;;14.09;100.00;101990.88;6028317;28;20474;-64
2023/09/24 06:41:32;;;;;;;10.63;4.97;;;;;;;14.10;100.00;101988.06;6027971;28;20034;-64
2023/09/24 06:44:27;;;;;;;10.83;5.10;;;;;;;14.16;100.00;101979.50;6027984;28;20030;-64
2023/09/24 06:47:22;;;;;;;10.57;5.38;;;;;;;14.12;100.00;101980.78;6026986;28;20105;-64
2023/09/24 06:50:18;;;;;;;14.23;5.53;;;;;;;14.02;100.00;101995.91;6028703;28;20437;-65
2023/09/24 06:53:13;;;;;;;10.73;5.50;;;;;;;14.12;100.00;102003.94;6027582;28;20483;-64
2023/09/24 06:56:09;;;;;;;8.90;4.90;;;;;;;13.97;100.00;101986.66;6033074;28;20096;-65
2023/09/24 06:59:09;;;;;;;9.18;5.35;;;;;;;13.94;100.00;101995.72;6028350;28;20077;-64
2023/09/24 07:02:06;;;;;;;9.85;5.80;;;;;;;14.11;100.00;102010.25;6028324;28;20034;-64
2023/09/24 07:05:01;;;;;;;8.63;4.63;;;;;;;14.07;100.00;101985.69;6028391;28;20427;-64
2023/09/24 07:07:57;;;;;;;10.90;4.97;;;;;;;14.01;100.00;101988.91;6027768;28;20077;-65
2023/09/24 07:11:31;;;;;;;10.25;5.00;;;;;;;14.05;100.00;102021.47;6028112;28;20280;-64
2023/09/24 07:14:27;;;;;;;9.80;4.93;;;;;;;14.15;100.00;102019.66;6023942;28;20541;-64
2023/09/24 07:17:22;;;;;;;8.93;5.23;;;;;;;14.24;100.00;102016.19;6027824;28;20042;-64
2023/09/24 07:20:18;;;;;;;9.50;4.53;;;;;;;14.41;100.00;102018.19;6027955;28;20033;-64
2023/09/24 07:23:14;;;;;;;7.80;4.80;;;;;;;14.71;100.00;102026.09;6028194;28;20045;-64
2023/09/24 07:26:09;;;;;;;10.37;4.90;;;;;;;14.64;100.00;102008.09;6026975;28;20042;-65
2023/09/24 07:29:05;;;;;;;10.68;4.85;;;;;;;14.80;100.00;102027.91;6027742;28;20482;-64
2023/09/24 07:32:00;;;;;;;10.80;4.95;;;;;;;14.77;100.00;102032.69;6028045;28;20366;-64
2023/09/24 07:34:56;;;;;;;8.90;4.33;;;;;;;14.87;100.00;102037.03;6027513;28;20033;-65
2023/09/24 07:37:51;;;;;;;8.57;4.85;;;;;;;14.93;100.00;102048.16;6026164;28;20023;-64
2023/09/24 07:40:49;;;;;;;8.38;4.35;;;;;;;14.92;100.00;102031.25;6027063;28;20487;-65
2023/09/24 07:43:45;;;;;;;8.48;4.85;;;;;;;15.11;100.00;102041.94;6027633;28;20038;-64
2023/09/24 07:46:40;;;;;;;12.68;4.90;;;;;;;15.36;100.00;102044.00;6026878;28;20053;-64
2023/09/24 07:49:35;;;;;;;10.27;5.03;;;;;;;15.35;100.00;102042.34;6027213;28;20042;-65
2023/09/24 07:52:31;;;;;;;8.97;5.00;;;;;;;15.40;100.00;102042.75;6027481;28;20371;-66
2023/09/24 07:55:27;;;;;;;8.32;4.50;;;;;;;15.56;100.00;102060.03;6032605;28;20478;-65
2023/09/24 07:58:23;;;;;;;11.45;5.00;;;;;;;15.83;100.00;102041.34;6026783;28;20034;-65
2023/09/24 08:01:22;;;;;;;7.72;4.40;;;;;;;16.38;100.00;102053.75;6026895;28;20045;-64
2023/09/24 08:04:17;;;;;;;7.20;3.65;;;;;;;16.86;100.00;102065.97;6026727;28;20054;-64
2023/09/24 08:07:12;;;;;;;8.10;3.70;;;;;;;17.07;97.45;102045.88;6025966;28;20464;-65
2023/09/24 08:10:08;;;;;;;8.03;3.17;;;;;;;17.29;93.43;102065.97;6022239;28;20270;-65
2023/09/24 08:13:04;;;;;;;6.80;3.20;;;;;;;17.51;90.49;102053.88;6026900;28;20113;-66
2023/09/24 08:15:59;;;;;;;12.73;3.40;;;;;;;17.76;91.50;102066.50;6021928;28;20381;-64
2023/09/24 08:18:54;;;;;;;4.47;2.70;;;;;;;17.83;90.32;102068.38;6025573;28;20394;-65
2023/09/24 08:21:50;;;;;;;5.57;2.53;;;;;;;17.79;83.28;102064.34;6026244;28;20033;-65
2023/09/24 08:24:45;;;;;;;3.90;2.10;;;;;;;17.87;84.66;102065.38;6025709;28;20053;-65
2023/09/24 08:27:40;;;;;;;5.70;2.10;;;;;;;17.77;84.45;102060.13;6025850;28;20498;-64
2023/09/24 08:30:36;;;;;;;3.93;2.40;;;;;;;17.71;85.23;102083.06;6026271;28;20042;-64
2023/09/24 08:33:31;;;;;;;4.43;2.10;;;;;;;17.91;82.24;102072.94;6026013;28;20730;-64
2023/09/24 08:36:26;;;;;;;3.43;1.70;;;;;;;18.04;79.36;102067.13;6025323;28;20042;-64
2023/09/24 08:39:22;;;;;;;4.57;1.83;;;;;;;17.19;81.90;102065.25;6025888;28;20039;-64
2023/09/24 08:42:19;;;;;;;4.23;2.00;;;;;;;16.89;86.16;102054.94;6026165;28;20034;-65
2023/09/24 08:45:15;;;;;;;3.55;1.85;;;;;;;16.95;86.72;102067.72;6025394;28;20031;-65
2023/09/24 08:48:11;;;;;;;4.70;2.22;;;;;;;17.23;85.29;102064.75;6025585;28;20030;-64
2023/09/24 08:51:08;;;;;;;5.28;2.40;;;;;;;17.21;83.92;102079.31;6024654;28;20023;-65
2023/09/24 08:54:04;;;;;;;5.07;2.47;;;;;;;17.65;83.99;102078.34;6025705;28;20041;-64
2023/09/24 08:56:59;;;;;;;4.28;1.90;;;;;;;17.65;82.12;102072.13;6032094;28;20030;-65
2023/09/24 08:59:54;;;;;;;4.37;2.10;;;;;;;17.22;84.28;102072.97;6025739;28;20030;-66
2023/09/24 09:02:50;;;;;;;4.97;1.80;;;;;;;16.68;86.16;102074.00;6026070;28;20335;-66
2023/09/24 09:05:45;;;;;;;4.63;2.20;;;;;;;16.51;90.53;102072.13;6024851;28;20401;-65
2023/09/24 09:08:50;;;;;;;2.97;1.73;;;;;;;16.63;91.02;102069.09;6025594;28;20178;-65
2023/09/24 09:11:46;;;;;;;3.40;1.70;;;;;;;17.16;90.39;102068.22;6025828;28;20015;-64
2023/09/24 09:14:41;;;;;;;5.17;1.63;;;;;;;17.81;83.28;102054.28;6025189;28;20077;-66
2023/09/24 09:17:40;;;;;;;3.70;1.83;;;;;;;17.64;80.25;102052.50;6024315;28;20063;-64
2023/09/24 09:20:43;;;;;;;3.50;1.88;;;;;;;17.46;81.41;102065.09;6025507;28;20286;-65
2023/09/24 09:23:43;;;;;;;3.55;1.92;;;;;;;17.99;82.06;102074.84;6025578;28;20491;-65
2023/09/24 09:26:39;;;;;;;5.43;1.83;;;;;;;18.15;79.48;102058.78;6025087;28;20042;-64
2023/09/24 09:29:34;;;;;;;3.77;2.10;;;;;;;18.21;78.69;102058.13;6025230;28;20023;-64
2023/09/24 09:32:36;;;;;;;2.90;1.83;;;;;;;18.32;79.57;102060.50;6025129;28;20042;-65
2023/09/24 09:35:32;;;;;;;4.90;1.88;;;;;;;17.75;79.46;102048.69;6024025;28;20042;-65
2023/09/24 09:38:27;;;;;;;4.15;2.03;;;;;;;17.28;83.81;102049.03;6024806;28;20034;-64
2023/09/24 09:41:24;;;;;;;3.65;1.80;;;;;;;17.16;85.49;102055.66;6025451;28;20437;-65
2023/09/24 09:44:25;;;;;;;6.00;1.70;;;;;;;17.45;83.93;102046.50;6025159;28;20041;-65
2023/09/24 09:47:21;;;;;;;4.15;1.85;;;;;;;17.33;85.15;102045.06;6024753;28;20065;-65
2023/09/24 09:50:20;;;;;;;4.95;1.90;;;;;;;17.39;85.10;102050.66;6023484;28;20065;-64
2023/09/24 09:53:17;;;;;;;4.72;1.98;;;;;;;17.57;84.90;102053.28;6025197;28;20046;-64
2023/09/24 09:56:12;;;;;;;3.30;1.90;;;;;;;17.52;84.04;102048.38;6030314;28;20071;-65
2023/09/24 09:59:08;;;;;;;4.75;1.83;;;;;;;17.31;83.89;102047.06;6024300;28;20178;-65
2023/09/24 10:02:05;;;;;;;2.40;1.73;;;;;;;17.28;83.31;102058.94;6025305;28;20026;-64
2023/09/24 10:05:01;;;;;;;3.35;1.55;;;;;;;17.30;82.41;102048.06;6018438;28;20150;-64
2023/09/24 10:07:56;;;;;;;4.20;1.38;;;;;;;17.72;78.80;102036.44;6023208;28;20018;-65
2023/09/24 10:10:51;;;;;;;3.70;2.03;;;;;;;18.15;75.26;102027.41;6024832;28;20524;-64
2023/09/24 10:13:49;;;;;;;4.13;1.50;;;;;;;18.52;73.53;102036.91;6025291;28;20036;-66
2023/09/24 10:16:44;;;;;;;4.05;1.70;;;;;;;18.90;70.91;102031.75;6021456;28;20262;-64
2023/09/24 10:19:49;;;;;;;4.13;1.50;;;;;;;19.13;67.26;102055.28;6024836;28;20076;-65
2023/09/24 10:22:45;;;;;;;3.75;1.58;;;;;;;18.57;72.13;102058.75;6024732;28;20034;-65
2023/09/24 10:25:46;;;;;;;3.45;1.67;;;;;;;18.17;75.96;102051.41;6024294;28;20038;-66
2023/09/24 10:28:47;;;;;;;5.30;1.88;;;;;;;17.54;79.14;102065.19;6026214;28;20027;-65
2023/09/24 10:32:11;;;;;;;4.07;1.80;;;;;;;17.11;82.44;102059.81;6028985;28;20104;-65
2023/09/24 10:35:08;;;;;;;4.57;1.90;;;;;;;16.97;84.47;102045.13;6028881;28;20040;-64
2023/09/24 10:38:03;;;;;;;3.33;1.92;;;;;;;17.31;85.14;102055.97;6028161;28;20030;-65
2023/09/24 10:41:07;;;;;;;3.88;1.70;;;;;;;17.71;79.19;102044.66;6028291;28;20101;-65
2023/09/24 10:44:23;;;;;;;4.07;1.70;;;;;;;18.49;72.06;102051.53;6028774;28;20058;-64
2023/09/24 10:47:25;;;;;;;4.35;1.50;;;;;;;18.57;68.35;102054.22;6028184;28;20034;-65
2023/09/24 10:50:22;;;;;;;2.70;1.55;;;;;;;18.85;69.47;102036.81;6028538;28;20627;-64
2023/09/24 10:53:18;;;;;;;3.78;1.40;;;;;;;19.48;65.01;102049.56;6028355;28;20418;-65
2023/09/24 10:56:13;;;;;;;3.42;1.30;;;;;;;19.60;61.58;102048.16;6027730;28;20066;-65
2023/09/24 10:59:09;;;;;;;5.47;1.87;;;;;;;19.93;62.27;102038.97;6027102;28;20048;-65
2023/09/24 11:02:17;;;;;;;4.60;2.00;;;;;;;19.61;59.66;102041.78;6027359;28;20030;-65
2023/09/24 11:05:13;;;;;;;2.58;1.15;;;;;;;20.15;61.77;102031.97;6028085;28;20033;-64
2023/09/24 11:08:10;;;;;;;2.30;1.40;;;;;;;20.36;58.03;102023.31;6026792;28;20038;-64
2023/09/24 11:11:05;;;;;;;1.42;1.13;;;;;;;20.60;55.95;102029.38;6027804;28;20504;-65
2023/09/24 11:14:13;;;;;;;2.30;1.37;;;;;;;20.69;55.14;102030.16;6024198;28;20026;-64
2023/09/24 11:17:08;;;;;;;3.17;1.58;;;;;;;20.88;57.64;102023.44;6027603;28;20045;-66
2023/09/24 11:20:08;;;;;;;3.70;1.57;;;;;;;21.04;55.24;102012.50;6027880;28;20026;-64
2023/09/24 11:23:11;;;;;;;2.70;1.45;;;;;;;21.10;53.08;102018.06;6028058;28;20266;-65
2023/09/24 11:26:06;;;;;;;3.45;1.60;;;;;;;20.64;55.52;102037.94;6027232;28;20382;-65
2023/09/24 11:29:08;;;;;;;3.47;1.43;;;;;;;20.37;53.51;102019.59;6027481;28;20067;-65
2023/09/24 11:32:03;;;;;;;4.40;1.38;;;;;;;20.28;53.84;102032.28;6027255;28;20022;-65
2023/09/24 11:35:09;;;;;;;3.20;1.53;;;;;;;20.02;56.68;102023.63;6026342;28;20054;-64
2023/09/24 11:38:04;;;;;;;2.55;1.40;;;;;;;20.29;56.51;102023.19;6027227;28;20748;-64
2023/09/24 11:41:09;;;;;;;2.93;1.50;;;;;;;20.35;58.53;102035.13;6032375;28;20072;-64
2023/09/24 11:44:05;;;;;;;3.05;1.60;;;;;;;20.30;58.08;102021.34;6020515;28;20046;-66
2023/09/24 11:47:00;;;;;;;6.45;1.80;;;;;;;19.86;59.18;102016.47;6026206;28;20110;-64
2023/09/24 11:49:55;;;;;;;4.27;1.83;;;;;;;19.75;57.80;102008.78;6027522;28;20478;-64
2023/09/24 11:52:50;;;;;;;4.17;1.60;;;;;;;19.79;59.55;102004.72;6027135;28;20077;-64
2023/09/24 11:55:50;;;;;;;3.53;1.43;;;;;;;20.51;57.44;102013.44;6034206;28;20116;-66
2023/09/24 11:58:45;;;;;;;3.40;1.40;;;;;;;20.71;55.05;102011.94;6027227;28;20111;-65
2023/09/24 12:01:40;;;;;;;2.33;1.33;;;;;;;20.51;54.88;102008.06;6023238;28;20022;-64
2023/09/24 12:04:35;;;;;;;2.83;1.33;;;;;;;20.61;54.72;102016.75;6026906;28;20040;-65
2023/09/24 12:07:33;;;;;;;2.27;1.10;;;;;;;20.75;53.19;102018.66;6026412;28;20034;-66
2023/09/24 12:10:29;;;;;;;2.17;1.27;;;;;;;20.70;53.54;102010.28;6027135;28;20504;-64
2023/09/24 12:13:25;;;;;;;1.77;1.13;;;;;;;20.10;53.13;102010.97;6026816;28;20046;-65
2023/09/24 12:16:20;;;;;;;3.83;1.30;;;;;;;19.56;54.23;102014.56;6025941;28;20031;-64
2023/09/24 12:19:15;;;;;;;3.33;1.30;;;;;;;20.41;55.39;102018.25;6026085;28;20040;-65
2023/09/24 12:22:11;;;;;;;2.80;1.48;;;;;;;20.72;53.50;102010.94;6026399;28;20035;-65
2023/09/24 12:25:08;;;;;;;2.55;1.45;;;;;;;20.39;52.89;102017.56;6026590;28;20073;-65
2023/09/24 12:28:05;;;;;;;1.88;1.15;;;;;;;20.01;54.51;102012.03;6026038;28;20030;-65
2023/09/24 12:31:01;;;;;;;2.72;1.60;;;;;;;20.08;55.70;102014.84;6026285;28;20474;-64
2023/09/24 12:33:56;;;;;;;3.40;1.55;;;;;;;19.82;55.62;102007.06;6026538;28;20022;-65
2023/09/24 12:36:52;;;;;;;2.77;1.40;;;;;;;19.64;56.56;102006.47;6022125;28;20058;-64
2023/09/24 12:39:48;;;;;;;3.13;1.40;;;;;;;19.82;54.55;102006.22;6022580;28;20261;-64
2023/09/24 12:42:43;;;;;;;2.45;1.25;;;;;;;20.19;53.12;102020.66;6026327;28;20027;-65
2023/09/24 12:45:39;;;;;;;2.30;1.37;;;;;;;20.36;53.12;102007.97;6025548;28;20528;-65
2023/09/24 12:48:35;;;;;;;4.05;1.42;;;;;;;19.99;54.62;102011.38;6025774;28;20621;-64
2023/09/24 12:51:31;;;;;;;3.00;1.50;;;;;;;19.83;55.70;102011.44;6025418;28;20030;-64
2023/09/24 12:54:26;;;;;;;3.22;1.63;;;;;;;19.48;57.54;102001.13;6025785;28;20041;-65
2023/09/24 12:57:21;;;;;;;3.30;1.73;;;;;;;19.70;57.40;102016.53;6024309;28;20045;-64
2023/09/24 13:00:17;;;;;;;2.97;1.40;;;;;;;20.02;55.71;101994.00;6025725;28;20033;-63
2023/09/24 13:03:12;;;;;;;6.18;1.65;;;;;;;20.45;55.24;101995.28;6024723;28;20281;-64
2023/09/24 13:06:18;;;;;;;2.77;1.40;;;;;;;20.52;54.09;101989.00;6013047;28;20049;-63
2023/09/24 13:09:16;;;;;;;;;;;;;;;20.85;50.58;101997.66;6022053;28;20042;-64
2023/09/24 13:12:12;;;;;;;2.20;1.20;;;;;;;20.89;49.32;102004.38;6013116;28;19940;-63
2023/09/24 13:15:09;;;;;;;2.20;1.30;;;;;;;21.12;49.64;101998.97;6019803;28;20473;-64
2023/09/24 13:18:04;;;;;;;2.25;1.20;;;;;;;20.85;50.43;101976.09;6019036;28;20033;-64
2023/09/24 13:20:59;;;;;;;1.80;0.95;;;;;;;21.01;51.42;101980.53;6021194;28;20034;-64
2023/09/24 13:23:55;;;;;;;1.33;0.95;;;;;;;21.18;50.22;101991.00;6023856;28;20041;-65
2023/09/24 13:26:50;;;;;;;1.87;1.20;;;;;;;20.87;50.34;101984.88;6022684;28;20038;-65
2023/09/24 13:29:45;;;;;;;3.30;1.27;;;;;;;20.75;50.37;101997.94;6020715;28;20030;-63
2023/09/24 13:32:41;;;;;;;1.53;1.00;;;;;;;20.69;52.39;101993.25;6023818;28;20512;-65
2023/09/24 13:35:40;;;;;;;1.85;1.10;;;;;;;20.98;50.91;101997.88;6023905;28;20676;-64
2023/09/24 13:38:35;;;;;;;1.65;1.15;;;;;;;20.71;49.87;101991.22;6024973;28;20038;-65